sensor_id;sensor_type;location;lat;lon;timestamp;P1;durP1;ratioP1;P2;durP2;ratioP2
67514;SDS011;60646;55.802;37.032;2024-01-30T00:00:23;4.40;;;2.60;;
67514;SDS011;60646;55.802;37.032;2024-01-30T00:02:52;4.82;;;2.58;;
67514;SDS011;60646;55.802;37.032;2024-01-30T00:05:18;5.30;;;3.00;;
67514;SDS011;60646;55.802;37.032;2024-01-30T00:07:43;3.88;;;2.15;;
67514;SDS011;60646;55.802;37.032;2024-01-30T00:10:09;5.15;;;2.50;;
67514;SDS011;60646;55.802;37.032;2024-01-30T00:12:35;6.05;;;2.60;;
67514;SDS011;60646;55.802;37.032;2024-01-30T00:15:01;5.57;;;3.00;;
67514;SDS011;60646;55.802;37.032;2024-01-30T00:17:30;5.07;;;2.70;;
67514;SDS011;60646;55.802;37.032;2024-01-30T00:19:56;5.32;;;2.72;;
67514;SDS011;60646;55.802;37.032;2024-01-30T00:22:22;5.35;;;2.80;;
67514;SDS011;60646;55.802;37.032;2024-01-30T00:24:47;5.03;;;2.72;;
67514;SDS011;60646;55.802;37.032;2024-01-30T00:27:13;5.20;;;2.60;;
67514;SDS011;60646;55.802;37.032;2024-01-30T00:29:39;7.15;;;2.60;;
67514;SDS011;60646;55.802;37.032;2024-01-30T00:32:05;4.90;;;2.55;;
67514;SDS011;60646;55.802;37.032;2024-01-30T00:34:31;6.32;;;2.78;;
67514;SDS011;60646;55.802;37.032;2024-01-30T00:36:57;4.32;;;2.40;;
67514;SDS011;60646;55.802;37.032;2024-01-30T00:39:23;5.18;;;2.17;;
67514;SDS011;60646;55.802;37.032;2024-01-30T00:41:49;5.35;;;2.58;;
67514;SDS011;60646;55.802;37.032;2024-01-30T00:44:14;5.32;;;2.72;;
67514;SDS011;60646;55.802;37.032;2024-01-30T00:46:40;5.18;;;2.63;;
67514;SDS011;60646;55.802;37.032;2024-01-30T00:49:06;5.65;;;2.70;;
67514;SDS011;60646;55.802;37.032;2024-01-30T00:51:32;5.10;;;2.50;;
67514;SDS011;60646;55.802;37.032;2024-01-30T00:53:58;5.53;;;2.95;;
67514;SDS011;60646;55.802;37.032;2024-01-30T00:56:24;4.93;;;2.53;;
67514;SDS011;60646;55.802;37.032;2024-01-30T00:58:50;5.00;;;2.30;;
67514;SDS011;60646;55.802;37.032;2024-01-30T01:01:15;5.05;;;2.50;;
67514;SDS011;60646;55.802;37.032;2024-01-30T01:03:41;5.35;;;2.50;;
67514;SDS011;60646;55.802;37.032;2024-01-30T01:06:27;5.82;;;2.72;;
67514;SDS011;60646;55.802;37.032;2024-01-30T01:08:53;5.65;;;2.55;;
67514;SDS011;60646;55.802;37.032;2024-01-30T01:11:19;6.13;;;3.13;;
67514;SDS011;60646;55.802;37.032;2024-01-30T01:13:44;4.10;;;2.22;;
67514;SDS011;60646;55.802;37.032;2024-01-30T01:16:10;5.57;;;2.65;;
67514;SDS011;60646;55.802;37.032;2024-01-30T01:18:36;5.90;;;3.03;;
67514;SDS011;60646;55.802;37.032;2024-01-30T01:21:02;6.32;;;2.95;;
67514;SDS011;60646;55.802;37.032;2024-01-30T01:23:28;5.18;;;2.67;;
67514;SDS011;60646;55.802;37.032;2024-01-30T01:25:54;6.07;;;2.88;;
67514;SDS011;60646;55.802;37.032;2024-01-30T01:28:20;5.32;;;2.60;;
67514;SDS011;60646;55.802;37.032;2024-01-30T01:30:46;4.40;;;2.50;;
67514;SDS011;60646;55.802;37.032;2024-01-30T01:33:12;4.90;;;2.90;;
67514;SDS011;60646;55.802;37.032;2024-01-30T01:35:39;6.53;;;2.60;;
67514;SDS011;60646;55.802;37.032;2024-01-30T01:38:05;4.95;;;2.63;;
67514;SDS011;60646;55.802;37.032;2024-01-30T01:40:31;7.00;;;2.83;;
67514;SDS011;60646;55.802;37.032;2024-01-30T01:42:57;4.88;;;3.20;;
67514;SDS011;60646;55.802;37.032;2024-01-30T01:45:23;5.95;;;2.67;;
67514;SDS011;60646;55.802;37.032;2024-01-30T01:47:52;6.43;;;3.03;;
67514;SDS011;60646;55.802;37.032;2024-01-30T01:50:18;5.90;;;2.60;;
67514;SDS011;60646;55.802;37.032;2024-01-30T01:52:48;4.45;;;2.65;;
67514;SDS011;60646;55.802;37.032;2024-01-30T01:55:18;4.22;;;2.38;;
67514;SDS011;60646;55.802;37.032;2024-01-30T01:57:51;7.88;;;3.95;;
67514;SDS011;60646;55.802;37.032;2024-01-30T02:00:18;4.93;;;2.95;;
67514;SDS011;60646;55.802;37.032;2024-01-30T02:02:45;6.30;;;2.92;;
67514;SDS011;60646;55.802;37.032;2024-01-30T02:05:12;4.93;;;2.60;;
67514;SDS011;60646;55.802;37.032;2024-01-30T02:07:38;5.28;;;2.90;;
67514;SDS011;60646;55.802;37.032;2024-01-30T02:10:04;5.90;;;3.50;;
67514;SDS011;60646;55.802;37.032;2024-01-30T02:12:31;6.22;;;2.90;;
67514;SDS011;60646;55.802;37.032;2024-01-30T02:14:57;6.43;;;2.63;;
67514;SDS011;60646;55.802;37.032;2024-01-30T02:17:23;4.65;;;2.70;;
67514;SDS011;60646;55.802;37.032;2024-01-30T02:19:50;5.97;;;2.70;;
67514;SDS011;60646;55.802;37.032;2024-01-30T02:22:16;7.63;;;3.72;;
67514;SDS011;60646;55.802;37.032;2024-01-30T02:24:41;6.30;;;3.42;;
67514;SDS011;60646;55.802;37.032;2024-01-30T02:27:07;6.13;;;2.95;;
67514;SDS011;60646;55.802;37.032;2024-01-30T02:29:33;5.55;;;2.70;;
67514;SDS011;60646;55.802;37.032;2024-01-30T02:31:59;5.05;;;2.90;;
67514;SDS011;60646;55.802;37.032;2024-01-30T02:34:25;5.38;;;2.80;;
67514;SDS011;60646;55.802;37.032;2024-01-30T02:36:51;5.70;;;2.97;;
67514;SDS011;60646;55.802;37.032;2024-01-30T02:39:16;6.18;;;2.80;;
67514;SDS011;60646;55.802;37.032;2024-01-30T02:41:42;5.85;;;3.15;;
67514;SDS011;60646;55.802;37.032;2024-01-30T02:44:08;5.05;;;2.72;;
67514;SDS011;60646;55.802;37.032;2024-01-30T02:46:34;4.85;;;2.80;;
67514;SDS011;60646;55.802;37.032;2024-01-30T02:49:00;8.07;;;3.00;;
67514;SDS011;60646;55.802;37.032;2024-01-30T02:51:26;5.93;;;2.92;;
67514;SDS011;60646;55.802;37.032;2024-01-30T02:53:52;6.03;;;2.92;;
67514;SDS011;60646;55.802;37.032;2024-01-30T02:56:18;8.55;;;3.75;;
67514;SDS011;60646;55.802;37.032;2024-01-30T02:58:43;4.70;;;2.30;;
67514;SDS011;60646;55.802;37.032;2024-01-30T03:01:09;4.90;;;2.58;;
67514;SDS011;60646;55.802;37.032;2024-01-30T03:03:35;5.88;;;3.00;;
67514;SDS011;60646;55.802;37.032;2024-01-30T03:06:01;5.90;;;3.13;;
67514;SDS011;60646;55.802;37.032;2024-01-30T03:08:28;4.78;;;2.63;;
67514;SDS011;60646;55.802;37.032;2024-01-30T03:10:54;7.43;;;3.15;;
67514;SDS011;60646;55.802;37.032;2024-01-30T03:13:20;4.93;;;2.60;;
67514;SDS011;60646;55.802;37.032;2024-01-30T03:15:49;5.60;;;2.80;;
67514;SDS011;60646;55.802;37.032;2024-01-30T03:18:15;4.68;;;2.58;;
67514;SDS011;60646;55.802;37.032;2024-01-30T03:20:41;5.38;;;2.70;;
67514;SDS011;60646;55.802;37.032;2024-01-30T03:23:07;5.70;;;2.80;;
67514;SDS011;60646;55.802;37.032;2024-01-30T03:25:33;5.22;;;2.72;;
67514;SDS011;60646;55.802;37.032;2024-01-30T03:27:59;6.47;;;3.10;;
67514;SDS011;60646;55.802;37.032;2024-01-30T03:30:25;5.65;;;2.92;;
67514;SDS011;60646;55.802;37.032;2024-01-30T03:32:51;7.55;;;3.70;;
67514;SDS011;60646;55.802;37.032;2024-01-30T03:35:18;6.00;;;2.80;;
67514;SDS011;60646;55.802;37.032;2024-01-30T03:37:44;6.40;;;2.97;;
67514;SDS011;60646;55.802;37.032;2024-01-30T03:40:10;5.07;;;2.67;;
67514;SDS011;60646;55.802;37.032;2024-01-30T03:42:36;6.03;;;2.85;;
67514;SDS011;60646;55.802;37.032;2024-01-30T03:45:02;5.57;;;2.80;;
67514;SDS011;60646;55.802;37.032;2024-01-30T03:47:30;7.15;;;3.15;;
67514;SDS011;60646;55.802;37.032;2024-01-30T03:49:56;5.00;;;2.88;;
67514;SDS011;60646;55.802;37.032;2024-01-30T03:52:22;6.20;;;2.75;;
67514;SDS011;60646;55.802;37.032;2024-01-30T03:54:48;5.50;;;2.63;;
67514;SDS011;60646;55.802;37.032;2024-01-30T03:57:14;5.40;;;2.72;;
67514;SDS011;60646;55.802;37.032;2024-01-30T03:59:41;5.05;;;2.65;;
67514;SDS011;60646;55.802;37.032;2024-01-30T04:02:08;4.70;;;2.70;;
67514;SDS011;60646;55.802;37.032;2024-01-30T04:04:35;3.95;;;2.50;;
67514;SDS011;60646;55.802;37.032;2024-01-30T04:07:01;4.95;;;2.83;;
67514;SDS011;60646;55.802;37.032;2024-01-30T04:09:26;5.55;;;2.72;;
67514;SDS011;60646;55.802;37.032;2024-01-30T04:11:54;5.97;;;3.22;;
67514;SDS011;60646;55.802;37.032;2024-01-30T04:14:19;4.85;;;2.55;;
67514;SDS011;60646;55.802;37.032;2024-01-30T04:16:45;5.43;;;2.70;;
67514;SDS011;60646;55.802;37.032;2024-01-30T04:19:11;5.07;;;2.78;;
67514;SDS011;60646;55.802;37.032;2024-01-30T04:21:37;5.63;;;2.63;;
67514;SDS011;60646;55.802;37.032;2024-01-30T04:24:03;5.28;;;2.90;;
67514;SDS011;60646;55.802;37.032;2024-01-30T04:26:29;6.72;;;2.90;;
67514;SDS011;60646;55.802;37.032;2024-01-30T04:28:55;5.78;;;3.58;;
67514;SDS011;60646;55.802;37.032;2024-01-30T04:31:20;5.78;;;2.95;;
67514;SDS011;60646;55.802;37.032;2024-01-30T04:33:46;8.43;;;3.20;;
67514;SDS011;60646;55.802;37.032;2024-01-30T04:36:12;7.93;;;3.35;;
67514;SDS011;60646;55.802;37.032;2024-01-30T04:38:38;5.88;;;3.47;;
67514;SDS011;60646;55.802;37.032;2024-01-30T04:41:04;6.38;;;3.40;;
67514;SDS011;60646;55.802;37.032;2024-01-30T04:43:30;7.85;;;3.28;;
67514;SDS011;60646;55.802;37.032;2024-01-30T04:45:56;7.05;;;3.03;;
67514;SDS011;60646;55.802;37.032;2024-01-30T04:48:22;5.82;;;3.00;;
67514;SDS011;60646;55.802;37.032;2024-01-30T04:50:48;5.28;;;2.78;;
67514;SDS011;60646;55.802;37.032;2024-01-30T04:53:14;7.07;;;3.47;;
67514;SDS011;60646;55.802;37.032;2024-01-30T04:55:40;7.72;;;3.42;;
67514;SDS011;60646;55.802;37.032;2024-01-30T04:58:06;5.38;;;2.92;;
67514;SDS011;60646;55.802;37.032;2024-01-30T05:00:32;5.53;;;2.97;;
67514;SDS011;60646;55.802;37.032;2024-01-30T05:03:01;6.72;;;3.42;;
67514;SDS011;60646;55.802;37.032;2024-01-30T05:05:27;6.57;;;2.97;;
67514;SDS011;60646;55.802;37.032;2024-01-30T05:07:53;7.38;;;3.40;;
67514;SDS011;60646;55.802;37.032;2024-01-30T05:10:19;6.90;;;2.88;;
67514;SDS011;60646;55.802;37.032;2024-01-30T05:12:44;7.60;;;3.15;;
67514;SDS011;60646;55.802;37.032;2024-01-30T05:18:58;7.70;;;3.28;;
67514;SDS011;60646;55.802;37.032;2024-01-30T05:21:24;5.25;;;3.10;;
67514;SDS011;60646;55.802;37.032;2024-01-30T05:23:50;7.10;;;3.13;;
67514;SDS011;60646;55.802;37.032;2024-01-30T05:26:17;5.57;;;3.08;;
67514;SDS011;60646;55.802;37.032;2024-01-30T05:28:43;7.15;;;3.35;;
67514;SDS011;60646;55.802;37.032;2024-01-30T05:31:12;5.05;;;2.60;;
67514;SDS011;60646;55.802;37.032;2024-01-30T05:33:38;5.78;;;2.97;;
67514;SDS011;60646;55.802;37.032;2024-01-30T05:36:04;7.85;;;3.20;;
67514;SDS011;60646;55.802;37.032;2024-01-30T05:38:30;5.95;;;2.95;;
67514;SDS011;60646;55.802;37.032;2024-01-30T05:40:57;6.82;;;3.13;;
67514;SDS011;60646;55.802;37.032;2024-01-30T05:43:24;5.38;;;2.90;;
67514;SDS011;60646;55.802;37.032;2024-01-30T05:45:50;5.45;;;3.00;;
67514;SDS011;60646;55.802;37.032;2024-01-30T05:48:17;8.63;;;3.78;;
67514;SDS011;60646;55.802;37.032;2024-01-30T05:50:43;8.38;;;3.50;;
67514;SDS011;60646;55.802;37.032;2024-01-30T05:53:12;7.20;;;3.60;;
67514;SDS011;60646;55.802;37.032;2024-01-30T05:56:05;8.40;;;3.53;;
67514;SDS011;60646;55.802;37.032;2024-01-30T05:58:32;6.13;;;2.92;;
67514;SDS011;60646;55.802;37.032;2024-01-30T06:00:58;6.20;;;2.78;;
67514;SDS011;60646;55.802;37.032;2024-01-30T06:03:23;6.95;;;3.47;;
67514;SDS011;60646;55.802;37.032;2024-01-30T06:05:50;8.13;;;3.20;;
67514;SDS011;60646;55.802;37.032;2024-01-30T06:08:16;6.85;;;3.50;;
67514;SDS011;60646;55.802;37.032;2024-01-30T06:10:41;5.50;;;2.85;;
67514;SDS011;60646;55.802;37.032;2024-01-30T06:13:07;6.38;;;3.15;;
67514;SDS011;60646;55.802;37.032;2024-01-30T06:15:33;5.50;;;3.72;;
67514;SDS011;60646;55.802;37.032;2024-01-30T06:17:59;6.35;;;3.17;;
67514;SDS011;60646;55.802;37.032;2024-01-30T06:20:25;9.93;;;3.80;;
67514;SDS011;60646;55.802;37.032;2024-01-30T06:22:51;9.68;;;3.47;;
67514;SDS011;60646;55.802;37.032;2024-01-30T06:25:16;8.27;;;3.55;;
67514;SDS011;60646;55.802;37.032;2024-01-30T06:27:43;6.50;;;3.47;;
67514;SDS011;60646;55.802;37.032;2024-01-30T06:30:08;8.70;;;3.67;;
67514;SDS011;60646;55.802;37.032;2024-01-30T06:32:35;9.90;;;4.45;;
67514;SDS011;60646;55.802;37.032;2024-01-30T06:35:01;7.07;;;3.40;;
67514;SDS011;60646;55.802;37.032;2024-01-30T06:37:29;8.23;;;3.63;;
67514;SDS011;60646;55.802;37.032;2024-01-30T06:39:55;7.03;;;3.72;;
67514;SDS011;60646;55.802;37.032;2024-01-30T06:42:21;9.77;;;3.97;;
67514;SDS011;60646;55.802;37.032;2024-01-30T06:44:47;9.35;;;3.78;;
67514;SDS011;60646;55.802;37.032;2024-01-30T06:47:13;7.72;;;3.47;;
67514;SDS011;60646;55.802;37.032;2024-01-30T06:49:39;7.40;;;3.50;;
67514;SDS011;60646;55.802;37.032;2024-01-30T06:52:08;7.20;;;3.58;;
67514;SDS011;60646;55.802;37.032;2024-01-30T06:54:34;8.35;;;3.92;;
67514;SDS011;60646;55.802;37.032;2024-01-30T06:57:00;9.07;;;3.67;;
67514;SDS011;60646;55.802;37.032;2024-01-30T06:59:26;6.88;;;3.72;;
67514;SDS011;60646;55.802;37.032;2024-01-30T07:01:51;8.25;;;3.80;;
67514;SDS011;60646;55.802;37.032;2024-01-30T07:04:17;7.72;;;3.97;;
67514;SDS011;60646;55.802;37.032;2024-01-30T07:06:44;6.88;;;3.47;;
67514;SDS011;60646;55.802;37.032;2024-01-30T07:09:09;7.78;;;4.00;;
67514;SDS011;60646;55.802;37.032;2024-01-30T07:11:35;6.80;;;3.55;;
67514;SDS011;60646;55.802;37.032;2024-01-30T07:14:01;8.63;;;4.00;;
67514;SDS011;60646;55.802;37.032;2024-01-30T07:16:30;8.43;;;3.55;;
67514;SDS011;60646;55.802;37.032;2024-01-30T07:18:56;8.43;;;4.18;;
67514;SDS011;60646;55.802;37.032;2024-01-30T07:21:22;7.75;;;3.55;;
67514;SDS011;60646;55.802;37.032;2024-01-30T07:23:56;10.93;;;4.07;;
67514;SDS011;60646;55.802;37.032;2024-01-30T07:26:23;7.85;;;4.68;;
67514;SDS011;60646;55.802;37.032;2024-01-30T07:28:49;6.05;;;3.78;;
67514;SDS011;60646;55.802;37.032;2024-01-30T07:31:15;8.88;;;3.80;;
67514;SDS011;60646;55.802;37.032;2024-01-30T07:33:41;8.82;;;4.07;;
67514;SDS011;60646;55.802;37.032;2024-01-30T07:36:07;9.20;;;4.35;;
67514;SDS011;60646;55.802;37.032;2024-01-30T07:38:34;7.15;;;4.15;;
67514;SDS011;60646;55.802;37.032;2024-01-30T07:41:00;8.98;;;3.50;;
67514;SDS011;60646;55.802;37.032;2024-01-30T07:43:26;8.30;;;4.05;;
67514;SDS011;60646;55.802;37.032;2024-01-30T07:45:52;8.35;;;3.80;;
67514;SDS011;60646;55.802;37.032;2024-01-30T07:48:17;9.05;;;3.97;;
67514;SDS011;60646;55.802;37.032;2024-01-30T07:50:43;9.82;;;4.25;;
67514;SDS011;60646;55.802;37.032;2024-01-30T07:53:09;7.30;;;4.00;;
67514;SDS011;60646;55.802;37.032;2024-01-30T07:55:35;10.30;;;4.57;;
67514;SDS011;60646;55.802;37.032;2024-01-30T07:58:26;10.18;;;4.35;;
67514;SDS011;60646;55.802;37.032;2024-01-30T08:00:53;9.18;;;4.00;;
67514;SDS011;60646;55.802;37.032;2024-01-30T08:03:19;13.00;;;4.47;;
67514;SDS011;60646;55.802;37.032;2024-01-30T08:05:45;7.30;;;3.97;;
67514;SDS011;60646;55.802;37.032;2024-01-30T08:08:11;7.47;;;3.83;;
67514;SDS011;60646;55.802;37.032;2024-01-30T08:10:36;8.27;;;3.88;;
67514;SDS011;60646;55.802;37.032;2024-01-30T08:13:02;11.23;;;4.10;;
67514;SDS011;60646;55.802;37.032;2024-01-30T08:15:28;10.05;;;3.92;;
67514;SDS011;60646;55.802;37.032;2024-01-30T08:17:54;10.77;;;4.47;;
67514;SDS011;60646;55.802;37.032;2024-01-30T08:20:24;9.07;;;4.30;;
67514;SDS011;60646;55.802;37.032;2024-01-30T08:22:51;14.93;;;5.22;;
67514;SDS011;60646;55.802;37.032;2024-01-30T08:25:17;8.25;;;4.43;;
67514;SDS011;60646;55.802;37.032;2024-01-30T08:27:44;11.85;;;4.40;;
67514;SDS011;60646;55.802;37.032;2024-01-30T08:30:11;9.45;;;4.22;;
67514;SDS011;60646;55.802;37.032;2024-01-30T08:32:38;9.20;;;4.28;;
67514;SDS011;60646;55.802;37.032;2024-01-30T08:35:04;10.85;;;4.50;;
67514;SDS011;60646;55.802;37.032;2024-01-30T08:37:31;8.95;;;4.38;;
67514;SDS011;60646;55.802;37.032;2024-01-30T08:39:57;7.97;;;4.38;;
67514;SDS011;60646;55.802;37.032;2024-01-30T08:42:23;10.77;;;4.20;;
67514;SDS011;60646;55.802;37.032;2024-01-30T08:44:49;12.07;;;4.78;;
67514;SDS011;60646;55.802;37.032;2024-01-30T08:47:17;16.45;;;6.20;;
67514;SDS011;60646;55.802;37.032;2024-01-30T08:49:44;11.80;;;5.35;;
67514;SDS011;60646;55.802;37.032;2024-01-30T08:52:10;12.55;;;4.65;;
67514;SDS011;60646;55.802;37.032;2024-01-30T08:54:36;7.45;;;4.45;;
67514;SDS011;60646;55.802;37.032;2024-01-30T08:57:02;10.32;;;4.53;;
67514;SDS011;60646;55.802;37.032;2024-01-30T08:59:30;8.70;;;4.30;;
67514;SDS011;60646;55.802;37.032;2024-01-30T09:01:56;9.85;;;4.38;;
67514;SDS011;60646;55.802;37.032;2024-01-30T09:04:24;8.68;;;4.05;;
67514;SDS011;60646;55.802;37.032;2024-01-30T09:06:50;7.72;;;4.10;;
67514;SDS011;60646;55.802;37.032;2024-01-30T09:09:17;8.18;;;3.78;;
67514;SDS011;60646;55.802;37.032;2024-01-30T09:11:43;12.55;;;5.35;;
67514;SDS011;60646;55.802;37.032;2024-01-30T09:14:10;10.48;;;5.40;;
67514;SDS011;60646;55.802;37.032;2024-01-30T09:16:37;11.23;;;4.55;;
67514;SDS011;60646;55.802;37.032;2024-01-30T09:19:03;8.02;;;4.43;;
67514;SDS011;60646;55.802;37.032;2024-01-30T09:21:29;13.73;;;4.10;;
67514;SDS011;60646;55.802;37.032;2024-01-30T09:24:01;9.82;;;4.10;;
67514;SDS011;60646;55.802;37.032;2024-01-30T09:26:28;10.23;;;4.80;;
67514;SDS011;60646;55.802;37.032;2024-01-30T09:28:54;7.80;;;3.45;;
67514;SDS011;60646;55.802;37.032;2024-01-30T09:31:20;8.73;;;4.10;;
67514;SDS011;60646;55.802;37.032;2024-01-30T09:33:45;7.65;;;3.97;;
67514;SDS011;60646;55.802;37.032;2024-01-30T09:36:13;8.38;;;4.28;;
67514;SDS011;60646;55.802;37.032;2024-01-30T09:38:44;11.65;;;4.63;;
67514;SDS011;60646;55.802;37.032;2024-01-30T09:41:10;10.02;;;4.30;;
67514;SDS011;60646;55.802;37.032;2024-01-30T09:43:37;6.75;;;3.60;;
67514;SDS011;60646;55.802;37.032;2024-01-30T09:46:04;8.43;;;4.28;;
67514;SDS011;60646;55.802;37.032;2024-01-30T09:48:31;8.85;;;4.40;;
67514;SDS011;60646;55.802;37.032;2024-01-30T09:50:59;7.70;;;4.20;;
67514;SDS011;60646;55.802;37.032;2024-01-30T09:53:25;9.80;;;4.30;;
67514;SDS011;60646;55.802;37.032;2024-01-30T09:55:51;7.05;;;3.55;;
67514;SDS011;60646;55.802;37.032;2024-01-30T09:58:17;9.50;;;4.70;;
67514;SDS011;60646;55.802;37.032;2024-01-30T10:00:43;11.40;;;4.45;;
67514;SDS011;60646;55.802;37.032;2024-01-30T10:03:27;10.23;;;4.30;;
67514;SDS011;60646;55.802;37.032;2024-01-30T10:05:53;10.80;;;4.78;;
67514;SDS011;60646;55.802;37.032;2024-01-30T10:08:21;9.10;;;4.88;;
67514;SDS011;60646;55.802;37.032;2024-01-30T10:10:47;11.73;;;4.47;;
67514;SDS011;60646;55.802;37.032;2024-01-30T10:13:15;16.95;;;5.13;;
67514;SDS011;60646;55.802;37.032;2024-01-30T10:15:42;8.65;;;4.38;;
67514;SDS011;60646;55.802;37.032;2024-01-30T10:18:08;11.13;;;4.65;;
67514;SDS011;60646;55.802;37.032;2024-01-30T10:20:35;8.73;;;4.50;;
67514;SDS011;60646;55.802;37.032;2024-01-30T10:23:03;9.88;;;4.43;;
67514;SDS011;60646;55.802;37.032;2024-01-30T10:25:33;10.82;;;4.70;;
67514;SDS011;60646;55.802;37.032;2024-01-30T10:27:59;7.93;;;4.70;;
67514;SDS011;60646;55.802;37.032;2024-01-30T10:30:25;11.90;;;4.40;;
67514;SDS011;60646;55.802;37.032;2024-01-30T10:32:53;10.80;;;4.25;;
67514;SDS011;60646;55.802;37.032;2024-01-30T10:35:19;11.23;;;4.85;;
67514;SDS011;60646;55.802;37.032;2024-01-30T10:37:49;9.73;;;4.82;;
67514;SDS011;60646;55.802;37.032;2024-01-30T10:40:15;9.70;;;4.32;;
67514;SDS011;60646;55.802;37.032;2024-01-30T10:42:42;8.20;;;3.80;;
67514;SDS011;60646;55.802;37.032;2024-01-30T10:45:10;7.28;;;3.97;;
67514;SDS011;60646;55.802;37.032;2024-01-30T10:47:50;9.43;;;4.25;;
67514;SDS011;60646;55.802;37.032;2024-01-30T10:50:22;9.43;;;4.53;;
67514;SDS011;60646;55.802;37.032;2024-01-30T10:52:50;10.15;;;4.60;;
67514;SDS011;60646;55.802;37.032;2024-01-30T10:55:17;14.55;;;4.55;;
67514;SDS011;60646;55.802;37.032;2024-01-30T10:57:44;10.80;;;5.10;;
67514;SDS011;60646;55.802;37.032;2024-01-30T11:00:10;11.75;;;4.90;;
67514;SDS011;60646;55.802;37.032;2024-01-30T11:02:39;15.77;;;5.00;;
67514;SDS011;60646;55.802;37.032;2024-01-30T11:05:07;11.15;;;4.93;;
67514;SDS011;60646;55.802;37.032;2024-01-30T11:07:34;11.30;;;4.68;;
67514;SDS011;60646;55.802;37.032;2024-01-30T11:10:01;9.73;;;4.80;;
67514;SDS011;60646;55.802;37.032;2024-01-30T11:12:33;11.43;;;4.93;;
67514;SDS011;60646;55.802;37.032;2024-01-30T11:15:06;8.88;;;4.32;;
67514;SDS011;60646;55.802;37.032;2024-01-30T11:17:40;8.80;;;3.90;;
67514;SDS011;60646;55.802;37.032;2024-01-30T11:20:14;9.73;;;4.10;;
67514;SDS011;60646;55.802;37.032;2024-01-30T11:22:43;8.27;;;3.97;;
67514;SDS011;60646;55.802;37.032;2024-01-30T11:25:11;11.43;;;5.15;;
67514;SDS011;60646;55.802;37.032;2024-01-30T11:27:38;11.43;;;4.55;;
67514;SDS011;60646;55.802;37.032;2024-01-30T11:30:04;9.30;;;4.35;;
67514;SDS011;60646;55.802;37.032;2024-01-30T11:32:30;9.38;;;4.13;;
67514;SDS011;60646;55.802;37.032;2024-01-30T11:35:15;9.52;;;4.10;;
67514;SDS011;60646;55.802;37.032;2024-01-30T11:37:41;11.23;;;4.30;;
67514;SDS011;60646;55.802;37.032;2024-01-30T11:40:08;9.55;;;4.63;;
67514;SDS011;60646;55.802;37.032;2024-01-30T11:42:34;10.32;;;4.45;;
67514;SDS011;60646;55.802;37.032;2024-01-30T11:45:04;11.15;;;3.90;;
67514;SDS011;60646;55.802;37.032;2024-01-30T11:47:31;9.93;;;4.70;;
67514;SDS011;60646;55.802;37.032;2024-01-30T11:49:59;9.15;;;4.75;;
67514;SDS011;60646;55.802;37.032;2024-01-30T11:52:25;6.72;;;3.83;;
67514;SDS011;60646;55.802;37.032;2024-01-30T11:54:51;11.00;;;4.47;;
67514;SDS011;60646;55.802;37.032;2024-01-30T11:57:17;11.30;;;4.55;;
67514;SDS011;60646;55.802;37.032;2024-01-30T11:59:43;9.82;;;4.20;;
67514;SDS011;60646;55.802;37.032;2024-01-30T12:02:09;9.27;;;4.55;;
67514;SDS011;60646;55.802;37.032;2024-01-30T12:04:40;12.02;;;4.63;;
67514;SDS011;60646;55.802;37.032;2024-01-30T12:07:06;7.07;;;3.72;;
67514;SDS011;60646;55.802;37.032;2024-01-30T12:09:32;10.68;;;4.82;;
67514;SDS011;60646;55.802;37.032;2024-01-30T12:11:58;8.48;;;3.97;;
67514;SDS011;60646;55.802;37.032;2024-01-30T12:14:24;8.98;;;4.15;;
67514;SDS011;60646;55.802;37.032;2024-01-30T12:16:51;10.80;;;4.47;;
67514;SDS011;60646;55.802;37.032;2024-01-30T12:19:30;8.07;;;4.03;;
67514;SDS011;60646;55.802;37.032;2024-01-30T12:21:59;10.48;;;4.55;;
67514;SDS011;60646;55.802;37.032;2024-01-30T12:24:26;10.88;;;4.85;;
67514;SDS011;60646;55.802;37.032;2024-01-30T12:26:56;8.50;;;3.88;;
67514;SDS011;60646;55.802;37.032;2024-01-30T12:29:22;8.30;;;4.15;;
67514;SDS011;60646;55.802;37.032;2024-01-30T12:31:48;10.23;;;4.63;;
67514;SDS011;60646;55.802;37.032;2024-01-30T12:34:18;10.07;;;4.35;;
67514;SDS011;60646;55.802;37.032;2024-01-30T12:36:49;13.65;;;4.85;;
67514;SDS011;60646;55.802;37.032;2024-01-30T12:39:15;13.23;;;4.85;;
67514;SDS011;60646;55.802;37.032;2024-01-30T12:41:41;10.35;;;4.35;;
67514;SDS011;60646;55.802;37.032;2024-01-30T12:44:07;10.65;;;4.40;;
67514;SDS011;60646;55.802;37.032;2024-01-30T12:46:34;11.15;;;4.40;;
67514;SDS011;60646;55.802;37.032;2024-01-30T12:49:00;10.07;;;4.35;;
67514;SDS011;60646;55.802;37.032;2024-01-30T12:51:26;9.35;;;4.63;;
67514;SDS011;60646;55.802;37.032;2024-01-30T12:53:52;10.73;;;4.97;;
67514;SDS011;60646;55.802;37.032;2024-01-30T12:56:18;10.38;;;4.50;;
67514;SDS011;60646;55.802;37.032;2024-01-30T12:58:44;10.95;;;5.43;;
67514;SDS011;60646;55.802;37.032;2024-01-30T13:01:09;11.23;;;4.55;;
67514;SDS011;60646;55.802;37.032;2024-01-30T13:03:35;8.68;;;4.30;;
67514;SDS011;60646;55.802;37.032;2024-01-30T13:06:01;11.70;;;4.82;;
67514;SDS011;60646;55.802;37.032;2024-01-30T13:08:28;11.27;;;5.38;;
67514;SDS011;60646;55.802;37.032;2024-01-30T13:10:54;13.80;;;5.35;;
67514;SDS011;60646;55.802;37.032;2024-01-30T13:13:20;11.00;;;4.95;;
67514;SDS011;60646;55.802;37.032;2024-01-30T13:15:46;10.35;;;4.43;;
67514;SDS011;60646;55.802;37.032;2024-01-30T13:18:13;12.65;;;5.38;;
67514;SDS011;60646;55.802;37.032;2024-01-30T13:20:39;11.13;;;4.85;;
67514;SDS011;60646;55.802;37.032;2024-01-30T13:23:12;11.85;;;5.22;;
67514;SDS011;60646;55.802;37.032;2024-01-30T13:26:00;11.10;;;5.35;;
67514;SDS011;60646;55.802;37.032;2024-01-30T13:28:26;11.18;;;5.70;;
67514;SDS011;60646;55.802;37.032;2024-01-30T13:30:52;9.52;;;4.60;;
67514;SDS011;60646;55.802;37.032;2024-01-30T13:33:18;12.18;;;5.10;;
67514;SDS011;60646;55.802;37.032;2024-01-30T13:35:44;11.65;;;5.00;;
67514;SDS011;60646;55.802;37.032;2024-01-30T13:38:10;8.77;;;4.47;;
67514;SDS011;60646;55.802;37.032;2024-01-30T13:40:36;12.07;;;4.55;;
67514;SDS011;60646;55.802;37.032;2024-01-30T13:43:02;11.30;;;5.10;;
67514;SDS011;60646;55.802;37.032;2024-01-30T13:45:28;10.43;;;4.68;;
67514;SDS011;60646;55.802;37.032;2024-01-30T13:47:59;9.02;;;4.10;;
67514;SDS011;60646;55.802;37.032;2024-01-30T13:50:34;14.63;;;4.68;;
67514;SDS011;60646;55.802;37.032;2024-01-30T13:53:01;10.30;;;4.55;;
67514;SDS011;60646;55.802;37.032;2024-01-30T13:55:28;9.18;;;4.40;;
67514;SDS011;60646;55.802;37.032;2024-01-30T13:57:54;11.30;;;4.55;;
67514;SDS011;60646;55.802;37.032;2024-01-30T14:00:22;7.22;;;3.95;;
67514;SDS011;60646;55.802;37.032;2024-01-30T14:02:51;14.18;;;5.10;;
67514;SDS011;60646;55.802;37.032;2024-01-30T14:05:16;14.63;;;5.43;;
67514;SDS011;60646;55.802;37.032;2024-01-30T14:07:44;13.88;;;5.53;;
67514;SDS011;60646;55.802;37.032;2024-01-30T14:10:11;12.23;;;5.22;;
67514;SDS011;60646;55.802;37.032;2024-01-30T14:12:44;12.15;;;5.03;;
67514;SDS011;60646;55.802;37.032;2024-01-30T14:15:10;12.25;;;5.47;;
67514;SDS011;60646;55.802;37.032;2024-01-30T14:17:38;9.70;;;4.55;;
67514;SDS011;60646;55.802;37.032;2024-01-30T14:20:04;8.07;;;4.00;;
67514;SDS011;60646;55.802;37.032;2024-01-30T14:22:30;9.48;;;4.85;;
67514;SDS011;60646;55.802;37.032;2024-01-30T14:24:57;13.48;;;4.97;;
67514;SDS011;60646;55.802;37.032;2024-01-30T14:27:23;11.18;;;5.05;;
67514;SDS011;60646;55.802;37.032;2024-01-30T14:29:51;11.55;;;4.47;;
67514;SDS011;60646;55.802;37.032;2024-01-30T14:32:20;9.82;;;4.90;;